createdAt,value
2019-02-24T00:01:49.083Z,6.15
2019-02-24T00:04:15.276Z,8.30
2019-02-24T00:06:41.428Z,6.70
2019-02-24T00:09:07.600Z,6.67
2019-02-24T00:11:33.987Z,5.47
2019-02-24T00:14:00.204Z,6.85
2019-02-24T00:16:26.376Z,6.40
2019-02-24T00:18:52.874Z,9.30
2019-02-24T00:21:19.076Z,5.10
2019-02-24T00:23:45.259Z,7.37
2019-02-24T00:26:11.464Z,4.40
2019-02-24T00:28:37.656Z,5.28
2019-02-24T00:31:03.820Z,9.28
2019-02-24T00:33:30.003Z,4.97
2019-02-24T00:35:56.170Z,4.58
2019-02-24T00:38:22.342Z,8.05
2019-02-24T00:40:48.522Z,5.42
2019-02-24T00:43:14.693Z,9.38
2019-02-24T00:45:40.953Z,5.65
2019-02-24T00:48:07.112Z,4.78
2019-02-24T00:50:33.433Z,6.22
2019-02-24T00:52:59.645Z,5.12
2019-02-24T00:55:25.812Z,5.62
2019-02-24T00:57:51.984Z,5.70
2019-02-24T01:00:18.165Z,5.85
2019-02-24T01:02:44.446Z,5.05
2019-02-24T01:05:10.929Z,5.97
2019-02-24T01:07:37.104Z,6.97
2019-02-24T01:10:06.605Z,7.30
2019-02-24T01:12:32.781Z,6.00
2019-02-24T01:14:58.971Z,5.90
2019-02-24T01:17:25.153Z,7.47
2019-02-24T01:19:51.321Z,7.60
2019-02-24T01:22:17.501Z,6.90
2019-02-24T01:24:43.712Z,6.12
2019-02-24T01:27:09.895Z,6.58
2019-02-24T01:29:36.078Z,7.78
2019-02-24T01:32:02.252Z,7.80
2019-02-24T01:34:28.444Z,9.23
2019-02-24T01:36:54.628Z,8.05
2019-02-24T01:39:20.808Z,7.30
2019-02-24T01:41:47.154Z,8.20
2019-02-24T01:44:13.341Z,7.92
2019-02-24T01:46:41.129Z,5.70
2019-02-24T01:49:07.309Z,5.80
2019-02-24T01:51:34.589Z,7.10
2019-02-24T01:54:00.793Z,9.95
2019-02-24T01:56:28.353Z,5.97
2019-02-24T01:58:54.513Z,6.00
2019-02-24T02:01:20.694Z,5.50
2019-02-24T02:03:46.847Z,5.78
2019-02-24T02:06:14.012Z,8.20
2019-02-24T02:08:40.184Z,6.47
2019-02-24T02:11:06.476Z,5.12
2019-02-24T02:13:32.664Z,5.25
2019-02-24T02:15:58.833Z,5.92
2019-02-24T02:18:25.024Z,6.72
2019-02-24T02:20:52.206Z,6.00
2019-02-24T02:23:18.424Z,6.15
2019-02-24T02:25:44.613Z,6.42
2019-02-24T02:28:11.212Z,7.53
2019-02-24T02:30:39.453Z,8.00
2019-02-24T02:33:05.648Z,7.72
2019-02-24T02:35:31.818Z,8.23
2019-02-24T02:37:58.024Z,10.03
2019-02-24T02:40:24.591Z,9.13
2019-02-24T02:42:50.964Z,7.95
2019-02-24T02:45:17.137Z,7.47
2019-02-24T02:47:43.309Z,5.00
2019-02-24T02:50:09.501Z,6.40
2019-02-24T02:52:37.452Z,6.95
2019-02-24T02:55:06.656Z,8.50
2019-02-24T02:57:32.845Z,6.50
2019-02-24T02:59:59.008Z,6.75
2019-02-24T03:02:25.224Z,6.45
2019-02-24T03:04:51.457Z,6.30
2019-02-24T03:07:28.586Z,7.15
2019-02-24T03:09:54.785Z,6.28
2019-02-24T03:12:20.972Z,7.45
2019-02-24T03:14:47.133Z,7.95
2019-02-24T03:17:13.320Z,7.72
2019-02-24T03:19:39.482Z,6.03
2019-02-24T03:22:05.681Z,6.28
2019-02-24T03:24:31.892Z,3.92
2019-02-24T03:26:58.116Z,9.85
2019-02-24T03:29:24.282Z,6.72
2019-02-24T03:31:50.553Z,7.20
2019-02-24T03:34:16.709Z,6.10
2019-02-24T03:36:42.891Z,7.17
2019-02-24T03:39:09.095Z,6.30
2019-02-24T03:41:35.292Z,8.28
2019-02-24T03:44:01.454Z,8.93
2019-02-24T03:46:27.612Z,8.05
2019-02-24T03:48:53.909Z,6.70
2019-02-24T03:51:20.079Z,6.90
2019-02-24T03:53:46.367Z,9.03
2019-02-24T03:56:12.556Z,4.25
2019-02-24T03:58:58.599Z,7.83
2019-02-24T04:01:24.829Z,6.08
2019-02-24T04:03:51.021Z,10.00
2019-02-24T04:06:17.217Z,7.33
2019-02-24T04:08:43.434Z,7.53
2019-02-24T04:11:09.604Z,5.83
2019-02-24T04:13:35.759Z,8.73
2019-02-24T04:16:01.955Z,6.70
2019-02-24T04:18:28.105Z,6.28
2019-02-24T04:20:54.301Z,7.30
2019-02-24T04:23:20.518Z,10.18
2019-02-24T04:25:46.697Z,6.80
2019-02-24T04:28:12.901Z,7.45
2019-02-24T04:30:39.060Z,6.37
2019-02-24T04:33:05.264Z,4.72
2019-02-24T04:35:31.449Z,5.15
2019-02-24T04:37:57.611Z,7.33
2019-02-24T04:40:23.803Z,6.95
2019-02-24T04:42:49.991Z,7.75
2019-02-24T04:45:16.172Z,6.92
2019-02-24T04:47:42.367Z,6.35
2019-02-24T04:50:08.715Z,6.92
2019-02-24T04:52:35.225Z,13.98
2019-02-24T04:55:01.719Z,8.88
2019-02-24T04:57:28.075Z,7.47
2019-02-24T04:59:54.432Z,5.25
2019-02-24T05:02:20.584Z,6.70
2019-02-24T05:04:46.765Z,7.00
2019-02-24T05:07:12.953Z,6.30
2019-02-24T05:09:39.148Z,6.92
2019-02-24T05:12:05.412Z,7.15
2019-02-24T05:14:31.821Z,6.60
2019-02-24T05:16:57.997Z,7.50
2019-02-24T05:19:24.175Z,6.30
2019-02-24T05:21:50.360Z,6.05
2019-02-24T05:24:16.554Z,7.55
2019-02-24T05:26:42.756Z,7.03
2019-02-24T05:29:09.289Z,6.97
2019-02-24T05:31:35.451Z,5.72
2019-02-24T05:34:01.722Z,8.85
2019-02-24T05:36:27.919Z,6.75
2019-02-24T05:38:54.170Z,9.18
2019-02-24T05:41:20.363Z,8.20
2019-02-24T05:43:46.565Z,5.85
2019-02-24T05:46:15.401Z,7.10
2019-02-24T05:48:41.785Z,9.08
2019-02-24T05:51:07.953Z,6.47
2019-02-24T05:53:34.150Z,6.05
2019-02-24T05:56:00.333Z,6.35
2019-02-24T05:58:26.662Z,6.62
2019-02-24T06:00:52.871Z,8.70
2019-02-24T06:03:19.051Z,8.50
2019-02-24T06:05:45.246Z,8.35
2019-02-24T06:08:11.432Z,7.78
2019-02-24T06:10:37.593Z,11.03
2019-02-24T06:13:03.823Z,6.08
2019-02-24T06:15:30.972Z,4.83
2019-02-24T06:17:57.140Z,9.18
2019-02-24T06:20:23.799Z,5.47
2019-02-24T06:22:50.305Z,5.67
2019-02-24T06:25:16.463Z,7.40
2019-02-24T06:27:42.708Z,8.10
2019-02-24T06:30:08.868Z,6.10
2019-02-24T06:32:35.052Z,10.15
2019-02-24T06:35:01.212Z,6.78
2019-02-24T06:37:27.445Z,8.58
2019-02-24T06:39:53.588Z,9.50
2019-02-24T06:42:19.777Z,7.28
2019-02-24T06:44:45.975Z,6.87
2019-02-24T06:47:12.193Z,7.58
2019-02-24T06:49:39.353Z,6.15
2019-02-24T06:52:05.661Z,5.75
2019-02-24T06:54:31.841Z,9.00
2019-02-24T06:56:58.021Z,6.20
2019-02-24T06:59:24.187Z,10.55
2019-02-24T07:01:50.409Z,7.85
2019-02-24T07:04:16.843Z,8.15
2019-02-24T07:06:43.373Z,6.10
2019-02-24T07:09:09.548Z,6.15
2019-02-24T07:11:35.756Z,10.35
2019-02-24T07:14:02.908Z,7.17
2019-02-24T07:16:29.145Z,5.95
2019-02-24T07:18:55.334Z,7.60
2019-02-24T07:21:21.505Z,6.53
2019-02-24T07:23:47.708Z,6.30
2019-02-24T07:26:13.877Z,7.45
2019-02-24T07:28:40.052Z,8.45
2019-02-24T07:31:06.252Z,7.03
2019-02-24T07:33:32.437Z,8.65
2019-02-24T07:35:58.627Z,5.53
2019-02-24T07:38:25.073Z,6.12
2019-02-24T07:40:51.266Z,8.88
2019-02-24T07:43:18.537Z,6.22
2019-02-24T07:45:44.905Z,5.25
2019-02-24T07:48:11.065Z,6.60
2019-02-24T07:50:37.663Z,7.17
2019-02-24T07:53:04.464Z,8.18
2019-02-24T07:55:30.637Z,6.05
2019-02-24T07:57:56.894Z,8.25
2019-02-24T08:00:31.743Z,8.20
2019-02-24T08:02:51.147Z,7.58
2019-02-24T08:05:17.358Z,8.18
2019-02-24T08:07:43.608Z,7.35
2019-02-24T08:10:09.778Z,10.08
2019-02-24T08:12:36.036Z,8.35
2019-02-24T08:15:05.009Z,7.35
2019-02-24T08:17:32.603Z,8.85
2019-02-24T08:19:58.796Z,11.63
2019-02-24T08:22:25.008Z,7.33
2019-02-24T08:24:51.173Z,7.60
2019-02-24T08:27:17.331Z,8.53
2019-02-24T08:29:43.513Z,8.83
2019-02-24T08:32:12.003Z,9.00
2019-02-24T08:34:38.221Z,9.25
2019-02-24T08:37:07.245Z,8.93
2019-02-24T08:39:33.886Z,6.37
2019-02-24T08:42:20.120Z,9.58
2019-02-24T08:44:46.330Z,8.13
2019-02-24T08:47:12.525Z,9.48
2019-02-24T08:49:38.719Z,9.08
2019-02-24T08:52:05.128Z,8.95
2019-02-24T08:54:31.492Z,6.87
2019-02-24T08:57:00.174Z,8.95
2019-02-24T08:59:26.480Z,9.35
2019-02-24T09:01:52.649Z,8.08
2019-02-24T09:04:18.960Z,8.28
2019-02-24T09:06:45.113Z,8.88
2019-02-24T09:09:11.549Z,8.50
2019-02-24T09:11:37.727Z,9.20
2019-02-24T09:14:03.924Z,8.93
2019-02-24T09:16:30.152Z,6.97
2019-02-24T09:18:56.312Z,6.70
2019-02-24T09:21:22.512Z,7.80
2019-02-24T09:23:48.755Z,7.33
2019-02-24T09:26:14.927Z,7.53
2019-02-24T09:28:41.104Z,6.35
2019-02-24T09:31:07.276Z,7.55
2019-02-24T09:33:33.428Z,10.13
2019-02-24T09:35:59.623Z,6.72
2019-02-24T09:38:25.793Z,7.55
2019-02-24T09:40:52.076Z,8.93
2019-02-24T09:43:18.379Z,7.58
2019-02-24T09:45:44.622Z,9.28
2019-02-24T09:48:11.163Z,7.92
2019-02-24T09:50:37.464Z,7.45
2019-02-24T09:53:03.756Z,8.38
2019-02-24T09:55:29.910Z,10.03
2019-02-24T09:57:56.101Z,7.58
2019-02-24T10:00:22.444Z,8.08
2019-02-24T10:02:48.965Z,9.35
2019-02-24T10:05:15.116Z,8.28
2019-02-24T10:07:41.352Z,6.83
2019-02-24T10:10:09.407Z,7.62
2019-02-24T10:12:35.636Z,7.30
2019-02-24T10:15:05.199Z,7.37
2019-02-24T10:17:31.404Z,6.80
2019-02-24T10:19:59.574Z,7.58
2019-02-24T10:22:25.738Z,9.50
2019-02-24T10:24:51.932Z,8.83
2019-02-24T10:27:19.125Z,7.75
2019-02-24T10:29:45.308Z,9.08
2019-02-24T10:32:11.586Z,8.28
2019-02-24T10:34:37.788Z,9.60
2019-02-24T10:37:04.035Z,8.53
2019-02-24T10:39:30.284Z,7.85
2019-02-24T10:41:56.436Z,9.73
2019-02-24T10:44:22.645Z,8.53
2019-02-24T10:46:48.822Z,8.15
2019-02-24T10:49:15.111Z,10.20
2019-02-24T10:51:41.321Z,8.40
2019-02-24T10:54:07.499Z,8.95
2019-02-24T10:56:33.665Z,8.55
2019-02-24T10:58:59.821Z,8.35
2019-02-24T11:01:29.780Z,7.60
2019-02-24T11:03:54.057Z,8.58
2019-02-24T11:06:20.236Z,7.70
2019-02-24T11:08:46.391Z,8.13
2019-02-24T11:11:12.764Z,8.33
2019-02-24T11:13:39.171Z,7.97
2019-02-24T11:16:05.362Z,9.53
2019-02-24T11:18:31.539Z,9.05
2019-02-24T11:20:57.720Z,6.28
2019-02-24T11:23:23.926Z,6.67
2019-02-24T11:25:50.156Z,8.90
2019-02-24T11:28:16.328Z,8.65
2019-02-24T11:30:42.758Z,7.92
2019-02-24T11:33:08.954Z,7.67
2019-02-24T11:35:35.108Z,8.68
2019-02-24T11:38:01.272Z,8.38
2019-02-24T11:40:27.553Z,8.45
2019-02-24T11:42:53.727Z,8.73
2019-02-24T11:45:19.880Z,7.50
2019-02-24T11:47:46.039Z,7.62
2019-02-24T11:50:12.239Z,9.30
2019-02-24T11:52:38.481Z,8.88
2019-02-24T11:55:08.720Z,9.90
2019-02-24T11:57:34.902Z,6.70
2019-02-24T12:00:01.219Z,9.15
2019-02-24T12:02:34.520Z,7.60
2019-02-24T12:04:57.708Z,6.30
2019-02-24T12:07:23.908Z,6.72
2019-02-24T12:09:51.164Z,5.90
2019-02-24T12:12:17.312Z,7.28
2019-02-24T12:14:43.495Z,6.53
2019-02-24T12:17:09.692Z,6.05
2019-02-24T12:19:35.851Z,7.78
2019-02-24T12:22:02.037Z,7.40
2019-02-24T12:24:28.188Z,8.08
2019-02-24T12:26:54.365Z,7.70
2019-02-24T12:29:20.524Z,7.70
2019-02-24T12:31:46.715Z,9.28
2019-02-24T12:34:12.856Z,11.53
2019-02-24T12:36:39.016Z,8.95
2019-02-24T12:39:05.187Z,10.05
2019-02-24T12:41:33.252Z,10.13
2019-02-24T12:43:59.421Z,9.33
2019-02-24T12:46:25.595Z,9.23
2019-02-24T12:48:53.079Z,7.40
2019-02-24T12:51:19.315Z,9.05
2019-02-24T12:53:45.507Z,8.50
2019-02-24T12:56:11.683Z,9.05
2019-02-24T12:58:37.839Z,8.90
2019-02-24T13:01:04.040Z,6.83
2019-02-24T13:03:30.191Z,8.73
2019-02-24T13:05:56.369Z,8.33
2019-02-24T13:08:22.588Z,9.28
2019-02-24T13:10:48.776Z,10.98
2019-02-24T13:13:14.932Z,10.03
2019-02-24T13:15:41.103Z,8.75
2019-02-24T13:18:07.280Z,7.40
2019-02-24T13:20:33.480Z,8.53
2019-02-24T13:22:59.643Z,7.92
2019-02-24T13:25:25.823Z,7.45
2019-02-24T13:27:52.307Z,7.85
2019-02-24T13:30:20.577Z,9.08
2019-02-24T13:32:46.774Z,9.53
2019-02-24T13:35:12.965Z,7.10
2019-02-24T13:37:39.152Z,10.00
2019-02-24T13:40:10.363Z,7.28
2019-02-24T13:42:36.629Z,8.25
2019-02-24T13:45:06.056Z,10.63
2019-02-24T13:47:32.283Z,9.93
2019-02-24T13:49:58.658Z,10.43
2019-02-24T13:52:24.928Z,8.80
2019-02-24T13:54:51.113Z,8.13
2019-02-24T13:57:17.281Z,10.43
2019-02-24T13:59:43.471Z,10.15
2019-02-24T14:02:09.715Z,7.62
2019-02-24T14:04:35.953Z,9.23
2019-02-24T14:07:02.296Z,6.47
2019-02-24T14:09:28.480Z,8.63
2019-02-24T14:11:54.653Z,9.03
2019-02-24T14:14:21.921Z,5.40
2019-02-24T14:16:48.464Z,5.90
2019-02-24T14:19:14.827Z,6.53
2019-02-24T14:21:41.081Z,6.33
2019-02-24T14:24:07.296Z,4.58
2019-02-24T14:26:33.464Z,5.15
2019-02-24T14:28:59.828Z,5.70
2019-02-24T14:31:26.101Z,4.20
2019-02-24T14:33:52.261Z,4.80
2019-02-24T14:36:18.427Z,4.60
2019-02-24T14:38:44.756Z,5.10
2019-02-24T14:41:11.012Z,5.33
2019-02-24T14:43:37.240Z,6.35
2019-02-24T14:46:03.465Z,5.08
2019-02-24T14:48:29.666Z,6.05
2019-02-24T14:50:55.840Z,5.35
2019-02-24T14:53:23.907Z,5.22
2019-02-24T14:55:50.091Z,5.87
2019-02-24T14:58:16.259Z,4.55
2019-02-24T15:00:42.460Z,5.28
2019-02-24T15:03:08.621Z,6.37
2019-02-24T15:05:34.917Z,5.95
2019-02-24T15:08:01.142Z,4.97
2019-02-24T15:10:27.348Z,3.62
2019-02-24T15:12:53.494Z,5.37
2019-02-24T15:15:33.805Z,5.65
2019-02-24T15:18:00.069Z,4.72
2019-02-24T15:20:26.211Z,5.53
2019-02-24T15:22:52.455Z,5.08
2019-02-24T15:25:18.658Z,6.20
2019-02-24T15:27:44.896Z,4.47
2019-02-24T15:30:23.761Z,5.60
2019-02-24T15:32:51.907Z,6.58
2019-02-24T15:35:18.208Z,5.37
2019-02-24T15:37:44.549Z,4.90
2019-02-24T15:40:10.706Z,6.83
2019-02-24T15:42:37.000Z,3.90
2019-02-24T15:45:05.533Z,5.45
2019-02-24T15:47:31.812Z,7.65
2019-02-24T15:49:58.018Z,7.10
2019-02-24T15:52:24.424Z,5.90
2019-02-24T15:54:50.622Z,4.62
2019-02-24T15:57:16.859Z,6.40
2019-02-24T15:59:43.012Z,5.35
2019-02-24T16:02:09.265Z,6.12
2019-02-24T16:04:35.448Z,5.40
2019-02-24T16:07:01.663Z,7.53
2019-02-24T16:09:27.848Z,5.00
2019-02-24T16:11:54.008Z,6.15
2019-02-24T16:14:20.217Z,7.33
2019-02-24T16:16:46.391Z,3.90
2019-02-24T16:19:12.681Z,6.97
2019-02-24T16:21:38.857Z,4.87
2019-02-24T16:24:05.036Z,5.33
2019-02-24T16:26:31.203Z,4.25
2019-02-24T16:28:57.383Z,7.50
2019-02-24T16:31:23.560Z,7.78
2019-02-24T16:33:49.728Z,6.87
2019-02-24T16:36:15.913Z,4.87
2019-02-24T16:38:42.093Z,4.62
2019-02-24T16:41:10.245Z,6.97
2019-02-24T16:43:36.407Z,5.42
2019-02-24T16:46:02.576Z,4.92
2019-02-24T16:48:28.737Z,7.83
2019-02-24T16:50:55.041Z,4.72
2019-02-24T16:53:21.352Z,6.08
2019-02-24T16:55:47.566Z,8.10
2019-02-24T16:58:13.842Z,6.60
2019-02-24T17:00:40.166Z,6.17
2019-02-24T17:03:06.496Z,7.75
2019-02-24T17:05:32.894Z,6.70
2019-02-24T17:07:59.467Z,9.23
2019-02-24T17:10:28.313Z,11.25
2019-02-24T17:12:55.284Z,6.47
2019-02-24T17:15:21.915Z,7.62
2019-02-24T17:17:48.099Z,10.68
2019-02-24T17:20:29.104Z,7.35
2019-02-24T17:22:55.280Z,11.57
2019-02-24T17:25:21.442Z,8.03
2019-02-24T17:27:47.888Z,8.00
2019-02-24T17:30:14.624Z,12.25
2019-02-24T17:32:40.829Z,8.00
2019-02-24T17:35:07.284Z,6.15
2019-02-24T17:37:33.471Z,6.40
2019-02-24T17:39:59.665Z,7.67
2019-02-24T17:42:25.844Z,10.15
2019-02-24T17:44:52.004Z,10.32
2019-02-24T17:47:18.181Z,9.55
2019-02-24T17:49:44.346Z,11.35
2019-02-24T17:52:10.614Z,12.37
2019-02-24T17:54:36.847Z,9.40
2019-02-24T17:57:03.007Z,11.68
2019-02-24T17:59:29.175Z,13.20
2019-02-24T18:01:55.419Z,11.53
2019-02-24T18:04:21.642Z,14.13
2019-02-24T18:06:47.819Z,12.18
2019-02-24T18:09:16.995Z,12.58
2019-02-24T18:11:43.171Z,9.90
2019-02-24T18:14:09.329Z,15.53
2019-02-24T18:16:35.512Z,13.83
2019-02-24T18:19:01.660Z,9.38
2019-02-24T18:21:27.813Z,9.38
2019-02-24T18:23:53.988Z,11.43
2019-02-24T18:26:20.161Z,16.12
2019-02-24T18:28:46.439Z,11.70
2019-02-24T18:31:15.797Z,13.48
2019-02-24T18:33:48.043Z,9.95
2019-02-24T18:36:10.443Z,10.18
2019-02-24T18:38:36.620Z,12.07
2019-02-24T18:41:02.788Z,10.85
2019-02-24T18:43:28.971Z,13.08
2019-02-24T18:45:55.142Z,11.38
2019-02-24T18:48:21.397Z,16.25
2019-02-24T18:50:47.612Z,12.07
2019-02-24T18:53:13.780Z,11.45
2019-02-24T18:55:39.935Z,14.23
2019-02-24T18:58:06.152Z,12.63
2019-02-24T19:00:32.661Z,11.08
2019-02-24T19:02:59.249Z,9.18
2019-02-24T19:05:25.424Z,12.55
2019-02-24T19:07:51.812Z,14.07
2019-02-24T19:10:39.776Z,11.88
2019-02-24T19:13:07.074Z,10.85
2019-02-24T19:15:33.246Z,10.75
2019-02-24T19:17:59.422Z,12.30
2019-02-24T19:20:25.639Z,10.90
2019-02-24T19:22:51.912Z,11.28
2019-02-24T19:25:18.106Z,9.30
2019-02-24T19:27:44.437Z,11.43
2019-02-24T19:30:15.936Z,12.85
2019-02-24T19:32:42.277Z,11.30
2019-02-24T19:35:10.103Z,11.73
2019-02-24T19:37:36.384Z,11.83
2019-02-24T19:40:05.976Z,12.90
2019-02-24T19:42:32.153Z,14.68
2019-02-24T19:44:58.337Z,11.70
2019-02-24T19:47:32.513Z,14.93
2019-02-24T19:49:58.741Z,14.18
2019-02-24T19:52:24.919Z,14.70
2019-02-24T19:54:51.094Z,17.85
2019-02-24T19:57:17.360Z,16.67
2019-02-24T19:59:43.654Z,15.55
2019-02-24T20:02:09.933Z,22.82
2019-02-24T20:04:36.237Z,19.82
2019-02-24T20:07:02.557Z,18.70
2019-02-24T20:09:28.895Z,20.48
2019-02-24T20:11:55.150Z,23.50
2019-02-24T20:14:21.408Z,23.95
2019-02-24T20:16:47.993Z,22.85
2019-02-24T20:19:14.265Z,20.77
2019-02-24T20:21:40.576Z,19.52
2019-02-24T20:24:07.890Z,17.20
2019-02-24T20:26:34.091Z,19.17
2019-02-24T20:29:00.278Z,18.82
2019-02-24T20:31:26.510Z,22.67
2019-02-24T20:33:52.820Z,18.02
2019-02-24T20:36:19.118Z,19.15
2019-02-24T20:38:46.562Z,21.12
2019-02-24T20:41:12.827Z,19.12
2019-02-24T20:43:39.124Z,20.48
2019-02-24T20:46:05.355Z,20.40
2019-02-24T20:48:31.561Z,20.85
2019-02-24T20:50:57.799Z,17.23
2019-02-24T20:53:24.001Z,21.95
2019-02-24T20:55:50.266Z,23.15
2019-02-24T20:58:16.487Z,18.00
2019-02-24T21:00:46.786Z,20.27
2019-02-24T21:03:13.171Z,18.48
2019-02-24T21:05:39.370Z,18.65
2019-02-24T21:08:05.541Z,20.10
2019-02-24T21:10:31.758Z,20.62
2019-02-24T21:12:57.925Z,18.90
2019-02-24T21:15:24.132Z,16.17
2019-02-24T21:17:50.332Z,17.95
2019-02-24T21:20:19.918Z,14.40
2019-02-24T21:22:46.456Z,21.48
2019-02-24T21:25:12.706Z,18.07
2019-02-24T21:27:38.915Z,14.70
2019-02-24T21:30:14.381Z,15.40
2019-02-24T21:32:41.712Z,17.12
2019-02-24T21:35:09.117Z,18.98
2019-02-24T21:37:35.370Z,18.23
2019-02-24T21:40:04.461Z,18.77
2019-02-24T21:42:31.790Z,17.07
2019-02-24T21:44:57.987Z,16.35
2019-02-24T21:47:24.207Z,20.45
2019-02-24T21:49:50.400Z,20.20
2019-02-24T21:52:16.568Z,16.67
2019-02-24T21:54:42.760Z,17.98
2019-02-24T21:57:08.968Z,17.55
2019-02-24T21:59:37.153Z,18.27
2019-02-24T22:02:03.280Z,17.62
2019-02-24T22:04:29.484Z,17.17
2019-02-24T22:06:55.973Z,18.73
2019-02-24T22:09:23.321Z,15.63
2019-02-24T22:11:49.772Z,21.00
2019-02-24T22:14:15.929Z,18.67
2019-02-24T22:16:42.116Z,16.05
2019-02-24T22:19:08.308Z,19.00
2019-02-24T22:21:34.476Z,14.00
2019-02-24T22:24:01.816Z,18.55
2019-02-24T22:26:29.014Z,19.75
2019-02-24T22:28:55.181Z,17.48
2019-02-24T22:31:21.345Z,17.30
2019-02-24T22:33:47.548Z,15.53
2019-02-24T22:36:13.716Z,18.25
2019-02-24T22:38:39.884Z,15.43
2019-02-24T22:41:06.168Z,21.33
2019-02-24T22:43:32.348Z,16.52
2019-02-24T22:45:58.536Z,18.12
2019-02-24T22:48:24.771Z,15.85
2019-02-24T22:50:50.937Z,15.68
2019-02-24T22:53:17.139Z,15.05
2019-02-24T22:55:43.320Z,14.40
2019-02-24T22:58:09.490Z,12.82
2019-02-24T23:00:52.401Z,15.08
2019-02-24T23:03:23.597Z,15.53
2019-02-24T23:05:50.205Z,14.70
2019-02-24T23:08:16.503Z,15.90
2019-02-24T23:10:42.720Z,16.42
2019-02-24T23:13:09.012Z,13.25
2019-02-24T23:15:35.190Z,15.55
2019-02-24T23:18:01.357Z,11.55
2019-02-24T23:20:27.529Z,13.55
2019-02-24T23:22:53.694Z,15.65
2019-02-24T23:25:19.881Z,14.30
2019-02-24T23:27:46.048Z,13.65
2019-02-24T23:30:12.573Z,13.95
2019-02-24T23:32:38.755Z,12.35
2019-02-24T23:35:05.289Z,15.23
2019-02-24T23:37:31.544Z,13.50
2019-02-24T23:39:57.779Z,18.32
2019-02-24T23:42:23.968Z,12.28
2019-02-24T23:44:50.136Z,12.75
2019-02-24T23:47:16.333Z,15.85
2019-02-24T23:49:42.498Z,13.00
2019-02-24T23:52:08.676Z,14.60
2019-02-24T23:54:34.852Z,15.78
2019-02-24T23:57:01.062Z,15.18
2019-02-24T23:59:27.223Z,13.70
